createdAt,value
2023-05-12T00:03:17.569Z,7.35
2023-05-12T00:07:19.096Z,8.57
2023-05-12T00:11:20.625Z,11.57
2023-05-12T00:15:22.736Z,8.38
2023-05-12T00:19:25.658Z,7.97
2023-05-12T00:23:27.139Z,9.93
2023-05-12T00:27:28.662Z,6.60
2023-05-12T00:31:30.396Z,8.07
2023-05-12T00:35:33.280Z,7.35
2023-05-12T00:39:34.813Z,9.15
2023-05-12T00:43:36.330Z,9.60
2023-05-12T00:47:38.064Z,10.57
2023-05-12T00:51:41.031Z,9.52
2023-05-12T00:55:43.590Z,8.30
2023-05-12T00:59:45.082Z,6.60
2023-05-12T01:03:46.829Z,8.05
2023-05-12T01:07:49.844Z,6.40
2023-05-12T01:11:51.520Z,7.28
2023-05-12T01:15:55.861Z,6.47
2023-05-12T01:20:00.163Z,9.82
2023-05-12T01:24:07.306Z,8.35
2023-05-12T01:28:10.395Z,7.18
2023-05-12T01:32:12.485Z,8.90
2023-05-12T01:36:13.974Z,9.77
2023-05-12T01:40:15.538Z,10.13
2023-05-12T01:44:18.382Z,10.35
2023-05-12T01:48:19.837Z,11.15
2023-05-12T01:52:21.322Z,8.57
2023-05-12T01:56:22.834Z,12.25
2023-05-12T02:00:25.694Z,9.15
2023-05-12T02:04:27.185Z,7.85
2023-05-12T02:08:28.924Z,9.90
2023-05-12T02:12:30.398Z,9.50
2023-05-12T02:16:33.274Z,11.80
2023-05-12T02:20:34.834Z,10.80
2023-05-12T02:24:36.326Z,13.60
2023-05-12T02:28:37.808Z,9.48
2023-05-12T02:32:40.677Z,14.38
2023-05-12T02:36:42.210Z,11.52
2023-05-12T02:40:43.707Z,10.50
2023-05-12T02:44:45.202Z,9.45
2023-05-12T02:48:48.030Z,9.93
2023-05-12T02:52:49.902Z,8.73
2023-05-12T02:56:51.368Z,10.50
2023-05-12T03:01:03.159Z,10.63
2023-05-12T03:05:12.535Z,13.60
2023-05-12T03:09:14.026Z,12.85
2023-05-12T03:13:15.567Z,9.13
2023-05-12T03:17:17.120Z,10.68
2023-05-12T03:21:20.047Z,9.23
2023-05-12T03:25:21.531Z,14.77
2023-05-12T03:29:23.010Z,10.10
2023-05-12T03:33:24.602Z,14.20
2023-05-12T03:37:27.431Z,11.77
2023-05-12T03:41:28.993Z,12.00
2023-05-12T03:45:30.481Z,10.95
2023-05-12T03:49:31.966Z,12.38
2023-05-12T03:53:34.837Z,14.35
2023-05-12T03:57:36.339Z,11.25
2023-05-12T04:01:37.921Z,9.98
2023-05-12T04:05:39.545Z,13.35
2023-05-12T04:09:42.508Z,12.45
2023-05-12T04:13:44.063Z,14.00
2023-05-12T04:17:45.599Z,12.75
2023-05-12T04:21:47.117Z,12.77
2023-05-12T04:25:49.966Z,12.68
2023-05-12T04:29:51.438Z,14.85
2023-05-12T04:33:52.923Z,12.73
2023-05-12T04:37:54.429Z,14.02
2023-05-12T04:41:57.256Z,14.82
2023-05-12T04:46:00.222Z,11.82
2023-05-12T04:50:02.094Z,13.55
2023-05-12T04:54:03.961Z,12.02
2023-05-12T04:58:06.804Z,10.98
2023-05-12T05:02:08.337Z,14.27
2023-05-12T05:06:09.849Z,12.82
2023-05-12T05:10:11.385Z,10.18
2023-05-12T05:14:14.206Z,14.48
2023-05-12T05:18:15.793Z,10.88
2023-05-12T05:22:17.358Z,11.82
2023-05-12T05:26:18.823Z,13.82
2023-05-12T05:30:21.723Z,14.88
2023-05-12T05:34:23.273Z,11.75
2023-05-12T05:38:24.810Z,15.15
2023-05-12T05:42:26.301Z,10.75
2023-05-12T05:46:29.153Z,9.95
2023-05-12T05:50:30.677Z,12.50
2023-05-12T05:54:32.167Z,9.43
2023-05-12T05:58:33.703Z,8.95
2023-05-12T06:02:36.676Z,12.38
2023-05-12T06:06:38.275Z,10.45
2023-05-12T06:10:39.882Z,11.82
2023-05-12T06:14:41.352Z,12.05
2023-05-12T06:18:44.228Z,9.35
2023-05-12T06:22:45.759Z,9.60
2023-05-12T06:26:47.239Z,9.68
2023-05-12T06:30:48.708Z,9.70
2023-05-12T06:34:51.768Z,10.85
2023-05-12T06:38:53.245Z,9.50
2023-05-12T06:42:54.749Z,9.52
2023-05-12T06:46:56.280Z,13.20
2023-05-12T06:50:59.129Z,8.27
2023-05-12T06:55:00.632Z,9.98
2023-05-12T06:59:02.111Z,9.07
2023-05-12T07:03:04.076Z,7.78
2023-05-12T07:07:06.929Z,9.40
2023-05-12T07:11:08.428Z,6.80
2023-05-12T07:15:10.689Z,10.48
2023-05-12T07:19:12.288Z,8.13
2023-05-12T07:23:16.919Z,10.27
2023-05-12T07:27:18.582Z,8.60
2023-05-12T07:31:20.153Z,6.10
2023-05-12T07:35:22.027Z,5.70
2023-05-12T07:39:25.267Z,7.68
2023-05-12T07:43:27.109Z,6.03
2023-05-12T07:47:28.746Z,8.52
2023-05-12T07:51:30.283Z,9.15
2023-05-12T07:55:33.415Z,5.30
2023-05-12T07:59:34.916Z,9.20
2023-05-12T08:03:36.656Z,8.25
2023-05-12T08:07:38.790Z,6.90
2023-05-12T08:11:43.222Z,4.68
2023-05-12T08:15:46.149Z,4.60
2023-05-12T08:19:47.700Z,7.43
2023-05-12T08:23:49.408Z,7.47
2023-05-12T08:27:52.228Z,5.68
2023-05-12T08:31:53.771Z,7.10
2023-05-12T08:35:55.274Z,4.63
2023-05-12T08:39:56.766Z,5.90
2023-05-12T08:44:00.317Z,7.63
2023-05-12T08:48:04.489Z,6.07
2023-05-12T08:52:08.102Z,4.88
2023-05-12T09:00:18.958Z,6.18
2023-05-12T09:04:20.676Z,6.13
2023-05-12T09:08:22.954Z,5.22
2023-05-12T09:12:26.649Z,9.20
2023-05-12T09:16:33.018Z,5.68
2023-05-12T09:20:34.911Z,5.00
2023-05-12T09:24:37.606Z,6.78
2023-05-12T09:28:39.104Z,6.38
2023-05-12T09:32:42.023Z,6.22
2023-05-12T09:36:43.934Z,6.15
2023-05-12T09:40:45.518Z,4.53
2023-05-12T09:44:46.992Z,6.22
2023-05-12T09:48:50.068Z,4.63
2023-05-12T09:52:51.628Z,5.20
2023-05-12T09:56:57.494Z,5.88
2023-05-12T10:01:20.772Z,4.57
2023-05-12T10:05:22.724Z,6.63
2023-05-12T10:09:28.642Z,5.30
2023-05-12T10:13:30.802Z,13.88
2023-05-12T10:17:33.402Z,8.07
2023-05-12T10:21:37.352Z,7.85
2023-05-12T10:25:41.379Z,6.80
2023-05-12T10:29:43.574Z,6.15
2023-05-12T10:33:55.826Z,10.13
2023-05-12T10:38:01.169Z,8.98
2023-05-12T10:42:05.962Z,8.60
2023-05-12T10:46:09.254Z,9.45
2023-05-12T10:50:11.455Z,9.55
2023-05-12T10:54:21.202Z,8.25
2023-05-12T10:58:23.088Z,7.68
2023-05-12T11:02:27.715Z,6.97
2023-05-12T11:06:30.600Z,7.38
2023-05-12T11:10:35.350Z,6.72
2023-05-12T11:14:38.609Z,7.65
2023-05-12T11:18:40.143Z,6.57
2023-05-12T11:22:42.048Z,9.77
2023-05-12T11:26:44.873Z,9.65
2023-05-12T11:30:52.512Z,9.38
2023-05-12T11:34:55.518Z,9.95
2023-05-12T11:38:56.991Z,8.45
2023-05-12T11:43:09.991Z,9.43
2023-05-12T11:47:13.731Z,8.57
2023-05-12T11:51:15.227Z,6.28
2023-05-12T11:55:21.082Z,11.07
2023-05-12T11:59:28.349Z,7.22
2023-05-12T12:03:30.026Z,8.15
2023-05-12T12:07:32.419Z,7.18
2023-05-12T12:11:33.937Z,8.95
2023-05-12T12:15:36.845Z,8.13
2023-05-12T12:19:38.409Z,7.03
2023-05-12T12:23:50.469Z,6.55
2023-05-12T12:27:52.628Z,7.38
2023-05-12T12:31:55.962Z,9.73
2023-05-12T12:35:57.446Z,7.85
2023-05-12T12:39:59.028Z,7.40
2023-05-12T12:44:00.556Z,8.32
2023-05-12T12:48:03.878Z,8.80
2023-05-12T12:52:06.093Z,7.05
2023-05-12T12:56:07.789Z,13.68
2023-05-12T13:00:10.432Z,7.45
2023-05-12T13:04:13.290Z,6.82
2023-05-12T13:08:14.903Z,8.38
2023-05-12T13:12:16.439Z,8.07
2023-05-12T13:16:18.070Z,6.13
2023-05-12T13:20:21.347Z,5.00
2023-05-12T13:24:23.122Z,6.80
2023-05-12T13:28:24.688Z,7.05
2023-05-12T13:32:26.259Z,6.15
2023-05-12T13:36:29.117Z,7.53
2023-05-12T13:40:30.672Z,7.93
2023-05-12T13:44:32.165Z,5.20
2023-05-12T13:48:33.665Z,5.70
2023-05-12T13:52:36.541Z,5.50
2023-05-12T13:56:38.026Z,5.45
2023-05-12T14:00:39.673Z,7.32
2023-05-12T14:04:41.207Z,7.97
2023-05-12T14:08:44.089Z,4.47
2023-05-12T14:12:46.712Z,6.35
2023-05-12T14:16:48.442Z,5.18
2023-05-12T14:20:50.492Z,9.13
2023-05-12T14:24:53.446Z,6.35
2023-05-12T14:28:55.000Z,5.47
2023-05-12T14:32:56.640Z,5.63
2023-05-12T14:36:58.157Z,8.38
2023-05-12T14:41:01.026Z,4.85
2023-05-12T14:45:02.516Z,7.00
2023-05-12T14:49:03.994Z,7.43
2023-05-12T14:53:05.527Z,6.18
2023-05-12T14:57:08.515Z,5.22
2023-05-12T15:01:10.034Z,4.47
2023-05-12T15:05:12.899Z,4.00
2023-05-12T15:09:14.510Z,5.10
2023-05-12T15:13:17.345Z,6.10
2023-05-12T15:17:19.185Z,4.22
2023-05-12T15:21:20.834Z,6.15
2023-05-12T15:25:22.420Z,9.45
2023-05-12T15:29:25.325Z,4.25
2023-05-12T15:33:26.864Z,7.30
2023-05-12T15:37:28.333Z,5.38
2023-05-12T15:41:29.842Z,5.10
2023-05-12T15:45:32.694Z,4.63
2023-05-12T15:49:34.220Z,5.75
2023-05-12T15:53:35.711Z,4.60
2023-05-12T15:57:37.211Z,4.90
2023-05-12T16:01:40.081Z,4.28
2023-05-12T16:05:41.613Z,4.20
2023-05-12T16:09:43.130Z,5.20
2023-05-12T16:13:44.688Z,4.75
2023-05-12T16:17:47.577Z,3.88
2023-05-12T16:21:49.105Z,6.05
2023-05-12T16:25:50.678Z,4.32
2023-05-12T16:29:52.160Z,4.50
2023-05-12T16:33:54.970Z,4.85
2023-05-12T16:37:56.442Z,5.85
2023-05-12T16:41:57.949Z,4.65
2023-05-12T16:46:00.081Z,6.57
2023-05-12T16:50:03.203Z,8.80
2023-05-12T16:54:04.743Z,10.05
2023-05-12T16:58:06.225Z,6.68
2023-05-12T17:02:07.963Z,7.18
2023-05-12T17:06:10.855Z,6.88
2023-05-12T17:10:12.386Z,6.10
2023-05-12T17:14:13.872Z,6.53
2023-05-12T17:18:15.405Z,6.43
2023-05-12T17:22:18.234Z,5.50
2023-05-12T17:26:19.779Z,7.78
2023-05-12T17:30:21.573Z,8.80
2023-05-12T17:34:23.110Z,6.63
2023-05-12T17:38:26.016Z,5.53
2023-05-12T17:42:27.664Z,4.80
2023-05-12T17:46:29.280Z,5.95
2023-05-12T17:50:30.820Z,4.70
2023-05-12T17:54:34.413Z,4.95
2023-05-12T17:58:35.902Z,5.65
2023-05-12T18:02:37.715Z,5.03
2023-05-12T18:06:39.563Z,6.65
2023-05-12T18:10:42.503Z,6.95
2023-05-12T18:14:44.031Z,6.93
2023-05-12T18:18:45.575Z,5.43
2023-05-12T18:22:47.096Z,6.38
2023-05-12T18:26:49.941Z,6.00
2023-05-12T18:30:51.557Z,7.43
2023-05-12T18:34:53.242Z,6.00
2023-05-12T18:38:55.269Z,7.18
2023-05-12T18:42:58.106Z,6.38
2023-05-12T18:46:59.617Z,7.45
2023-05-12T18:51:01.196Z,6.60
2023-05-12T18:55:02.796Z,11.63
2023-05-12T18:59:05.655Z,10.05
2023-05-12T19:03:07.202Z,6.90
2023-05-12T19:07:08.825Z,9.02
2023-05-12T19:11:10.335Z,8.38
2023-05-12T19:15:13.190Z,8.20
2023-05-12T19:19:14.712Z,12.02
2023-05-12T19:23:16.225Z,7.28
2023-05-12T19:27:17.895Z,8.10
2023-05-12T19:31:20.849Z,8.98
2023-05-12T19:35:22.758Z,6.68
2023-05-12T19:39:24.566Z,10.77
2023-05-12T19:43:26.046Z,9.13
2023-05-12T19:47:29.639Z,13.75
2023-05-12T19:51:31.352Z,12.57
2023-05-12T19:55:32.947Z,19.63
2023-05-12T19:59:34.428Z,23.92
2023-05-12T20:03:37.372Z,21.63
2023-05-12T20:07:38.860Z,24.08
2023-05-12T20:11:40.367Z,23.23
2023-05-12T20:15:41.887Z,18.17
2023-05-12T20:19:44.743Z,16.98
2023-05-12T20:23:46.238Z,13.90
2023-05-12T20:27:47.690Z,12.60
2023-05-12T20:31:50.853Z,13.50
2023-05-12T20:35:53.989Z,18.00
2023-05-12T20:39:55.708Z,16.85
2023-05-12T20:43:57.194Z,17.70
2023-05-12T20:47:58.708Z,18.70
2023-05-12T20:52:01.573Z,16.55
2023-05-12T20:56:03.068Z,16.05
2023-05-12T21:00:06.219Z,16.10
2023-05-12T21:04:07.735Z,14.73
2023-05-12T21:08:10.588Z,15.38
2023-05-12T21:12:12.117Z,17.05
2023-05-12T21:16:13.797Z,15.05
2023-05-12T21:20:15.330Z,19.75
2023-05-12T21:24:18.142Z,12.20
2023-05-12T21:28:19.621Z,13.38
2023-05-12T21:32:21.157Z,13.32
2023-05-12T21:36:22.659Z,15.05
2023-05-12T21:40:25.474Z,15.20
2023-05-12T21:44:26.960Z,15.77
2023-05-12T21:48:28.441Z,16.60
2023-05-12T21:52:30.087Z,18.45
2023-05-12T21:56:32.932Z,14.93
2023-05-12T22:00:34.429Z,21.70
2023-05-12T22:04:35.978Z,14.20
2023-05-12T22:08:37.867Z,15.95
2023-05-12T22:12:41.100Z,15.65
2023-05-12T22:16:42.919Z,18.67
2023-05-12T22:20:44.491Z,14.90
2023-05-12T22:24:45.959Z,19.10
2023-05-12T22:28:48.760Z,14.75
2023-05-12T22:32:50.386Z,14.30
2023-05-12T22:36:51.958Z,15.68
2023-05-12T22:40:54.187Z,16.25
2023-05-12T22:44:57.013Z,17.77
2023-05-12T22:48:58.491Z,20.77
2023-05-12T22:52:59.960Z,24.20
2023-05-12T22:57:01.438Z,20.88
2023-05-12T23:01:04.510Z,18.65
2023-05-12T23:05:06.918Z,17.67
2023-05-12T23:09:08.397Z,14.80
2023-05-12T23:13:09.899Z,17.20
2023-05-12T23:17:12.728Z,14.73
2023-05-12T23:21:14.196Z,16.60
2023-05-12T23:25:15.686Z,15.15
2023-05-12T23:29:17.156Z,13.05
2023-05-12T23:33:20.078Z,13.48
2023-05-12T23:37:21.643Z,12.63
2023-05-12T23:41:23.181Z,12.98
2023-05-12T23:45:24.708Z,15.05
2023-05-12T23:49:27.536Z,14.40
2023-05-12T23:53:29.064Z,14.35
2023-05-12T23:57:30.546Z,15.32
